createdAt,value
2018-05-16T00:01:08.578Z,74.20
2018-05-16T00:03:36.050Z,73.80
2018-05-16T00:06:03.541Z,74.20
2018-05-16T00:08:31.006Z,73.40
2018-05-16T00:10:59.710Z,73.20
2018-05-16T00:13:27.938Z,73.40
2018-05-16T00:15:55.402Z,73.30
2018-05-16T00:18:22.879Z,73.40
2018-05-16T00:20:50.342Z,73.40
2018-05-16T00:23:17.789Z,73.30
2018-05-16T00:25:45.251Z,73.50
2018-05-16T00:28:12.704Z,73.50
2018-05-16T00:30:40.174Z,73.50
2018-05-16T00:33:07.754Z,73.60
2018-05-16T00:35:35.218Z,74.20
2018-05-16T00:38:02.684Z,74.00
2018-05-16T00:40:30.154Z,73.90
2018-05-16T00:42:57.617Z,75.00
2018-05-16T00:45:25.071Z,74.70
2018-05-16T00:47:52.539Z,75.20
2018-05-16T00:50:20.016Z,74.90
2018-05-16T00:52:47.469Z,76.00
2018-05-16T00:55:14.951Z,74.50
2018-05-16T00:57:42.392Z,75.20
2018-05-16T01:00:09.851Z,74.90
2018-05-16T01:02:37.409Z,74.40
2018-05-16T01:05:04.858Z,74.50
2018-05-16T01:07:32.334Z,75.40
2018-05-16T01:09:59.782Z,75.20
2018-05-16T01:12:27.250Z,75.10
2018-05-16T01:14:54.725Z,75.80
2018-05-16T01:17:22.186Z,75.50
2018-05-16T01:19:49.654Z,75.50
2018-05-16T01:22:17.108Z,75.30
2018-05-16T01:24:44.578Z,76.20
2018-05-16T01:27:12.019Z,76.10
2018-05-16T01:29:39.495Z,76.60
2018-05-16T01:32:06.974Z,76.10
2018-05-16T01:34:34.539Z,76.00
2018-05-16T01:37:01.990Z,75.70
2018-05-16T01:39:29.558Z,75.60
2018-05-16T01:41:57.023Z,75.60
2018-05-16T01:44:24.511Z,75.50
2018-05-16T01:46:52.061Z,75.60
2018-05-16T01:49:19.506Z,75.40
2018-05-16T01:51:46.978Z,76.30
2018-05-16T01:54:14.447Z,75.70
2018-05-16T01:56:41.932Z,75.60
2018-05-16T01:59:09.375Z,75.50
2018-05-16T02:01:36.939Z,75.30
2018-05-16T02:04:04.414Z,75.10
2018-05-16T02:06:32.682Z,76.00
2018-05-16T02:09:00.168Z,75.00
2018-05-16T02:11:27.630Z,74.90
2018-05-16T02:13:55.082Z,74.70
2018-05-16T02:16:22.559Z,74.60
2018-05-16T02:18:50.107Z,74.60
2018-05-16T02:21:17.662Z,74.30
2018-05-16T02:23:45.183Z,74.20
2018-05-16T02:26:12.578Z,74.30
2018-05-16T02:28:40.055Z,74.30
2018-05-16T02:31:07.527Z,74.50
2018-05-16T02:33:34.990Z,74.50
2018-05-16T02:36:02.543Z,74.30
2018-05-16T02:38:30.002Z,74.50
2018-05-16T02:40:57.465Z,74.60
2018-05-16T02:43:25.037Z,75.20
2018-05-16T02:45:52.507Z,75.10
2018-05-16T02:48:19.975Z,75.30
2018-05-16T02:50:47.444Z,75.50
2018-05-16T02:53:14.891Z,76.10
2018-05-16T02:55:42.355Z,75.60
2018-05-16T02:58:09.842Z,76.00
2018-05-16T03:00:37.307Z,76.00
2018-05-16T03:03:04.769Z,76.40
2018-05-16T03:05:32.254Z,76.50
2018-05-16T03:08:00.486Z,76.80
2018-05-16T03:10:28.051Z,76.80
2018-05-16T03:12:55.616Z,77.30
2018-05-16T03:15:23.094Z,77.10
2018-05-16T03:17:50.584Z,77.20
2018-05-16T03:20:18.803Z,78.20
2018-05-16T03:22:46.265Z,77.60
2018-05-16T03:25:13.744Z,77.70
2018-05-16T03:27:41.208Z,77.50
2018-05-16T03:30:08.681Z,78.60
2018-05-16T03:32:36.159Z,78.90
2018-05-16T03:35:03.638Z,78.20
2018-05-16T03:37:31.118Z,77.70
2018-05-16T03:39:59.351Z,79.10
2018-05-16T03:42:26.827Z,79.10
2018-05-16T03:44:54.309Z,78.90
2018-05-16T03:47:21.767Z,79.30
2018-05-16T03:49:49.235Z,78.70
2018-05-16T03:52:16.696Z,78.60
2018-05-16T03:54:44.178Z,78.30
2018-05-16T03:57:24.370Z,78.90
2018-05-16T04:00:03.866Z,78.90
2018-05-16T04:02:44.162Z,79.80
2018-05-16T04:05:11.623Z,79.80
2018-05-16T04:07:39.927Z,79.90
2018-05-16T04:10:07.411Z,80.00
2018-05-16T04:12:34.870Z,79.60
2018-05-16T04:15:02.432Z,79.80
2018-05-16T04:17:29.906Z,79.60
2018-05-16T04:19:57.394Z,79.70
2018-05-16T04:22:25.622Z,80.90
2018-05-16T04:24:53.095Z,80.80
2018-05-16T04:27:20.660Z,80.30
2018-05-16T04:29:48.131Z,79.80
2018-05-16T04:32:15.608Z,80.00
2018-05-16T04:34:44.583Z,79.80
2018-05-16T04:37:12.030Z,79.80
2018-05-16T04:39:39.505Z,80.00
2018-05-16T04:42:06.956Z,79.90
2018-05-16T04:44:34.442Z,80.10
2018-05-16T04:47:01.894Z,79.90
2018-05-16T04:49:29.369Z,79.40
2018-05-16T04:51:56.825Z,79.70
2018-05-16T04:54:24.306Z,79.60
2018-05-16T04:56:51.778Z,80.60
2018-05-16T04:59:20.022Z,81.40
2018-05-16T05:01:47.507Z,80.60
2018-05-16T05:04:14.974Z,80.80
2018-05-16T05:06:42.425Z,80.90
2018-05-16T05:09:09.911Z,80.90
2018-05-16T05:11:37.394Z,81.20
2018-05-16T05:14:05.610Z,81.10
2018-05-16T05:16:33.547Z,81.10
2018-05-16T05:19:02.332Z,81.00
2018-05-16T05:21:30.596Z,81.10
2018-05-16T05:23:58.127Z,81.00
2018-05-16T05:26:25.522Z,80.70
2018-05-16T05:28:52.999Z,80.90
2018-05-16T05:31:21.234Z,80.90
2018-05-16T05:33:48.706Z,80.90
2018-05-16T05:36:16.181Z,80.70
2018-05-16T05:38:43.736Z,80.80
2018-05-16T05:41:11.209Z,80.80
2018-05-16T05:43:38.658Z,81.20
2018-05-16T05:46:06.234Z,81.20
2018-05-16T05:48:33.715Z,81.00
2018-05-16T05:51:01.175Z,80.40
2018-05-16T05:53:28.613Z,81.20
2018-05-16T05:55:56.842Z,80.80
2018-05-16T05:58:25.076Z,80.90
2018-05-16T06:00:52.556Z,80.90
2018-05-16T06:03:20.002Z,81.40
2018-05-16T06:05:47.467Z,81.50
2018-05-16T06:08:14.918Z,81.30
2018-05-16T06:10:42.372Z,80.80
2018-05-16T06:13:09.834Z,81.00
2018-05-16T06:15:37.296Z,82.00
2018-05-16T06:18:04.768Z,81.50
2018-05-16T06:20:32.249Z,81.70
2018-05-16T06:22:59.814Z,81.30
2018-05-16T06:25:27.286Z,81.70
2018-05-16T06:27:54.729Z,81.00
2018-05-16T06:30:22.209Z,81.90
2018-05-16T06:32:49.713Z,81.60
2018-05-16T06:35:17.146Z,81.20
2018-05-16T06:37:44.595Z,81.20
2018-05-16T06:40:12.047Z,81.10
2018-05-16T06:42:39.511Z,81.10
2018-05-16T06:45:06.954Z,80.60
2018-05-16T06:47:34.446Z,80.00
2018-05-16T06:50:01.916Z,80.00
2018-05-16T06:52:29.381Z,80.60
2018-05-16T06:54:56.860Z,80.60
2018-05-16T06:57:24.302Z,80.40
2018-05-16T06:59:51.862Z,80.50
2018-05-16T07:02:19.334Z,80.60
2018-05-16T07:04:46.890Z,80.00
2018-05-16T07:07:14.336Z,79.90
2018-05-16T07:09:41.834Z,80.50
2018-05-16T07:12:09.381Z,80.10
2018-05-16T07:14:36.863Z,80.40
2018-05-16T07:17:04.322Z,80.70
2018-05-16T07:19:31.798Z,80.30
2018-05-16T07:21:59.263Z,80.60
2018-05-16T07:24:26.703Z,80.60
2018-05-16T07:26:54.174Z,81.10
2018-05-16T07:29:21.626Z,80.50
2018-05-16T07:31:49.091Z,81.70
2018-05-16T07:34:16.562Z,80.80
2018-05-16T07:36:44.031Z,80.50
2018-05-16T07:39:11.494Z,80.80
2018-05-16T07:41:38.963Z,80.50
2018-05-16T07:44:07.170Z,79.40
2018-05-16T07:46:35.506Z,79.80
2018-05-16T07:49:02.962Z,79.80
2018-05-16T07:51:30.426Z,80.40
2018-05-16T07:53:57.861Z,80.30
2018-05-16T07:56:25.335Z,80.40
2018-05-16T07:58:52.774Z,80.50
2018-05-16T08:01:20.981Z,80.50
2018-05-16T08:03:48.439Z,80.50
2018-05-16T08:06:15.910Z,80.30
2018-05-16T08:08:43.365Z,80.10
2018-05-16T08:11:10.831Z,80.20
2018-05-16T08:13:38.286Z,80.40
2018-05-16T08:16:05.765Z,81.00
2018-05-16T08:18:33.230Z,80.70
2018-05-16T08:21:00.676Z,80.20
2018-05-16T08:23:28.129Z,79.80
2018-05-16T08:25:56.354Z,79.50
2018-05-16T08:28:23.826Z,79.40
2018-05-16T08:30:51.275Z,79.60
2018-05-16T08:33:18.730Z,79.30
2018-05-16T08:35:46.202Z,79.50
2018-05-16T08:38:13.666Z,79.70
2018-05-16T08:40:41.134Z,79.70
2018-05-16T08:43:08.602Z,79.60
2018-05-16T08:45:36.089Z,79.70
2018-05-16T08:48:03.630Z,79.70
2018-05-16T08:50:31.085Z,79.40
2018-05-16T08:52:58.532Z,79.20
2018-05-16T08:55:25.985Z,79.00
2018-05-16T08:57:53.486Z,79.10
2018-05-16T09:00:20.924Z,79.20
2018-05-16T09:02:48.365Z,79.10
2018-05-16T09:05:15.862Z,79.10
2018-05-16T09:07:43.315Z,79.40
2018-05-16T09:10:10.779Z,79.20
2018-05-16T09:12:38.239Z,79.40
2018-05-16T09:15:05.706Z,79.40
2018-05-16T09:17:33.159Z,79.30
2018-05-16T09:20:00.654Z,79.30
2018-05-16T09:22:28.119Z,79.00
2018-05-16T09:24:55.595Z,79.70
2018-05-16T09:27:23.136Z,79.40
2018-05-16T09:29:50.603Z,79.60
2018-05-16T09:32:18.070Z,79.30
2018-05-16T09:34:45.533Z,79.70
2018-05-16T09:37:12.997Z,79.40
2018-05-16T09:39:40.468Z,79.40
2018-05-16T09:42:07.928Z,79.60
2018-05-16T09:44:35.386Z,79.40
2018-05-16T09:47:02.843Z,79.30
2018-05-16T09:49:30.309Z,79.30
2018-05-16T09:51:57.769Z,79.50
2018-05-16T09:54:25.243Z,79.10
2018-05-16T09:56:52.686Z,79.20
2018-05-16T09:59:20.155Z,79.60
2018-05-16T10:01:47.610Z,79.70
2018-05-16T10:04:15.080Z,78.90
2018-05-16T10:06:42.557Z,78.30
2018-05-16T10:09:09.993Z,78.80
2018-05-16T10:11:37.461Z,78.90
2018-05-16T10:14:04.909Z,78.70
2018-05-16T10:16:32.396Z,78.50
2018-05-16T10:18:59.844Z,78.40
2018-05-16T10:21:27.286Z,78.30
2018-05-16T10:23:54.763Z,78.60
2018-05-16T10:26:22.209Z,78.80
2018-05-16T10:28:49.701Z,78.80
2018-05-16T10:31:17.178Z,78.80
2018-05-16T10:33:44.646Z,78.90
2018-05-16T10:36:12.123Z,79.10
2018-05-16T10:38:39.579Z,79.10
2018-05-16T10:41:07.030Z,79.30
2018-05-16T10:43:34.500Z,79.30
2018-05-16T10:46:01.951Z,80.00
2018-05-16T10:48:29.402Z,79.50
2018-05-16T10:50:56.891Z,79.70
2018-05-16T10:53:24.343Z,79.60
2018-05-16T10:55:51.806Z,79.40
2018-05-16T10:58:19.271Z,79.20
2018-05-16T11:00:46.836Z,79.70
2018-05-16T11:03:14.353Z,79.40
2018-05-16T11:05:41.739Z,79.10
2018-05-16T11:08:09.211Z,79.00
2018-05-16T11:10:36.767Z,79.40
2018-05-16T11:13:04.166Z,79.80
2018-05-16T11:15:31.611Z,79.60
2018-05-16T11:17:59.083Z,79.40
2018-05-16T11:20:26.554Z,79.50
2018-05-16T11:22:54.002Z,79.40
2018-05-16T11:25:21.462Z,79.50
2018-05-16T11:27:48.967Z,79.80
2018-05-16T11:30:17.186Z,80.20
2018-05-16T11:32:44.652Z,80.20
2018-05-16T11:35:12.147Z,80.80
2018-05-16T11:37:39.594Z,80.80
2018-05-16T11:40:07.618Z,80.90
2018-05-16T11:42:35.155Z,80.70
2018-05-16T11:45:02.606Z,79.90
2018-05-16T11:47:30.067Z,79.50
2018-05-16T11:49:57.519Z,79.20
2018-05-16T11:52:24.974Z,79.30
2018-05-16T11:54:52.426Z,78.90
2018-05-16T11:57:19.890Z,79.20
2018-05-16T11:59:47.339Z,79.10
2018-05-16T12:02:15.578Z,79.60
2018-05-16T12:04:43.134Z,79.60
2018-05-16T12:07:10.611Z,79.50
2018-05-16T12:09:38.053Z,79.20
2018-05-16T12:12:05.525Z,79.20
2018-05-16T12:14:33.005Z,78.80
2018-05-16T12:17:00.463Z,78.70
2018-05-16T12:19:28.017Z,78.60
2018-05-16T12:21:55.482Z,78.60
2018-05-16T12:24:22.930Z,78.80
2018-05-16T12:26:50.391Z,78.00
2018-05-16T12:29:17.909Z,77.80
2018-05-16T12:31:45.307Z,77.50
2018-05-16T12:34:12.805Z,77.80
2018-05-16T12:36:40.432Z,77.40
2018-05-16T12:39:07.926Z,76.80
2018-05-16T12:41:35.369Z,77.10
2018-05-16T12:44:02.839Z,77.80
2018-05-16T12:46:30.383Z,77.70
2018-05-16T12:48:57.785Z,76.50
2018-05-16T12:51:25.239Z,76.80
2018-05-16T12:53:52.810Z,76.30
2018-05-16T12:56:20.266Z,76.40
2018-05-16T12:58:47.730Z,73.90
2018-05-16T13:01:15.178Z,74.10
2018-05-16T13:03:42.668Z,73.90
2018-05-16T13:06:10.135Z,74.10
2018-05-16T13:08:37.602Z,73.90
2018-05-16T13:11:05.055Z,73.00
2018-05-16T13:13:32.501Z,72.50
2018-05-16T13:15:59.970Z,73.20
2018-05-16T13:18:27.417Z,72.60
2018-05-16T13:20:54.878Z,72.50
2018-05-16T13:23:22.340Z,72.30
2018-05-16T13:25:49.840Z,72.30
2018-05-16T13:28:17.296Z,70.30
2018-05-16T13:30:44.754Z,70.90
2018-05-16T13:33:12.218Z,71.50
2018-05-16T13:35:39.725Z,71.70
2018-05-16T13:38:07.250Z,70.90
2018-05-16T13:40:35.140Z,71.70
2018-05-16T13:43:02.605Z,71.70
2018-05-16T13:45:30.071Z,70.60
2018-05-16T13:47:57.543Z,71.40
2018-05-16T13:50:25.008Z,71.10
2018-05-16T13:52:52.450Z,71.50
2018-05-16T13:55:19.916Z,71.50
2018-05-16T13:57:47.376Z,71.60
2018-05-16T14:00:14.844Z,71.10
2018-05-16T14:02:42.298Z,71.40
2018-05-16T14:05:09.782Z,72.60
2018-05-16T14:07:37.258Z,72.50
2018-05-16T14:10:05.471Z,70.20
2018-05-16T14:12:32.935Z,70.20
2018-05-16T14:15:00.370Z,70.30
2018-05-16T14:17:28.603Z,71.20
2018-05-16T14:19:56.062Z,71.20
2018-05-16T14:22:23.527Z,69.50
2018-05-16T14:24:50.982Z,71.00
2018-05-16T14:27:18.449Z,70.30
2018-05-16T14:29:45.927Z,71.00
2018-05-16T14:32:13.389Z,71.00
2018-05-16T14:34:40.946Z,70.90
2018-05-16T14:37:08.399Z,70.50
2018-05-16T14:39:35.874Z,70.30
2018-05-16T14:42:03.318Z,70.50
2018-05-16T14:44:30.785Z,71.70
2018-05-16T14:46:58.251Z,72.20
2018-05-16T14:49:25.718Z,72.30
2018-05-16T14:51:53.168Z,72.30
2018-05-16T14:54:20.627Z,71.80
2018-05-16T14:56:48.099Z,71.60
2018-05-16T14:59:15.546Z,71.60
2018-05-16T15:01:43.010Z,71.20
2018-05-16T15:04:11.234Z,71.40
2018-05-16T15:06:38.698Z,71.40
2018-05-16T15:09:06.161Z,71.40
2018-05-16T15:11:33.644Z,72.10
2018-05-16T15:14:01.187Z,71.50
2018-05-16T15:16:28.633Z,71.90
2018-05-16T15:18:56.106Z,71.70
2018-05-16T15:21:23.646Z,71.80
2018-05-16T15:23:51.030Z,72.00
2018-05-16T15:26:18.466Z,70.10
2018-05-16T15:28:45.931Z,70.10
2018-05-16T15:31:13.383Z,70.00
2018-05-16T15:33:40.870Z,70.40
2018-05-16T15:36:08.422Z,70.50
2018-05-16T15:38:35.914Z,70.20
2018-05-16T15:41:03.378Z,70.70
2018-05-16T15:43:30.849Z,71.10
2018-05-16T15:45:58.286Z,70.90
2018-05-16T15:48:25.744Z,71.40
2018-05-16T15:50:53.195Z,72.10
2018-05-16T15:53:20.637Z,72.50
2018-05-16T15:55:48.855Z,73.40
2018-05-16T15:58:16.326Z,73.40
2018-05-16T16:00:43.904Z,73.90
2018-05-16T16:03:11.352Z,74.20
2018-05-16T16:05:38.798Z,74.40
2018-05-16T16:08:06.364Z,74.60
2018-05-16T16:10:33.758Z,74.90
2018-05-16T16:13:01.202Z,75.20
2018-05-16T16:15:28.728Z,75.60
2018-05-16T16:17:56.134Z,74.90
2018-05-16T16:20:24.589Z,75.00
2018-05-16T16:22:52.057Z,75.10
2018-05-16T16:25:19.526Z,75.40
2018-05-16T16:27:46.980Z,75.10
2018-05-16T16:30:14.483Z,75.20
2018-05-16T16:32:42.074Z,75.40
2018-05-16T16:35:09.619Z,75.10
2018-05-16T16:37:37.098Z,75.30
2018-05-16T16:40:04.560Z,75.90
2018-05-16T16:42:32.036Z,75.80
2018-05-16T16:45:00.308Z,75.20
2018-05-16T16:47:27.759Z,75.30
2018-05-16T16:49:55.201Z,75.10
2018-05-16T16:52:22.671Z,74.80
2018-05-16T16:54:50.247Z,75.00
2018-05-16T16:57:17.827Z,75.00
2018-05-16T16:59:45.998Z,76.00
2018-05-16T17:02:14.978Z,75.10
2018-05-16T17:04:42.458Z,75.00
2018-05-16T17:07:09.927Z,73.60
2018-05-16T17:09:37.398Z,74.70
2018-05-16T17:12:04.834Z,75.30
2018-05-16T17:14:32.394Z,75.70
2018-05-16T17:16:59.855Z,76.30
2018-05-16T17:19:27.301Z,76.60
2018-05-16T17:21:54.762Z,76.50
2018-05-16T17:24:22.250Z,76.90
2018-05-16T17:26:49.931Z,76.60
2018-05-16T17:29:17.400Z,76.20
2018-05-16T17:31:44.934Z,76.40
2018-05-16T17:34:12.400Z,76.50
2018-05-16T17:36:39.886Z,76.60
2018-05-16T17:39:07.339Z,77.00
2018-05-16T17:41:34.801Z,76.80
2018-05-16T17:44:02.369Z,77.00
2018-05-16T17:46:29.845Z,77.20
2018-05-16T17:48:57.326Z,76.90
2018-05-16T17:51:24.794Z,76.90
2018-05-16T17:53:52.341Z,77.30
2018-05-16T17:56:19.816Z,77.40
2018-05-16T17:58:47.278Z,77.30
2018-05-16T18:01:15.506Z,77.10
2018-05-16T18:03:43.009Z,77.10
2018-05-16T18:06:10.455Z,77.00
2018-05-16T18:08:37.924Z,76.60
2018-05-16T18:11:05.371Z,77.30
2018-05-16T18:13:54.449Z,77.00
2018-05-16T18:16:33.771Z,77.50
2018-05-16T18:19:01.958Z,77.00
2018-05-16T18:21:29.423Z,76.90
2018-05-16T18:23:56.977Z,77.30
2018-05-16T18:26:24.446Z,77.50
2018-05-16T18:28:51.920Z,77.70
2018-05-16T18:31:19.362Z,77.70
2018-05-16T18:33:46.886Z,77.70
2018-05-16T18:36:15.123Z,77.60
2018-05-16T18:38:42.557Z,77.50
2018-05-16T18:41:10.035Z,77.70
2018-05-16T18:43:37.473Z,77.80
2018-05-16T18:46:05.000Z,78.30
2018-05-16T18:48:32.458Z,78.50
2018-05-16T18:50:59.914Z,78.50
2018-05-16T18:53:27.421Z,78.70
2018-05-16T18:55:54.935Z,78.80
2018-05-16T18:58:23.117Z,78.90
2018-05-16T19:00:50.579Z,78.80
2018-05-16T19:03:18.032Z,78.90
2018-05-16T19:05:45.604Z,78.60
2018-05-16T19:08:12.983Z,78.90
2018-05-16T19:10:40.427Z,79.20
2018-05-16T19:13:07.920Z,79.30
2018-05-16T19:15:35.451Z,79.10
2018-05-16T19:18:02.910Z,79.00
2018-05-16T19:20:30.374Z,79.10
2018-05-16T19:22:57.867Z,79.30
2018-05-16T19:25:25.402Z,79.40
2018-05-16T19:27:52.841Z,79.50
2018-05-16T19:30:20.309Z,79.30
2018-05-16T19:32:47.794Z,79.20
2018-05-16T19:35:15.258Z,79.10
2018-05-16T19:37:42.727Z,79.10
2018-05-16T19:40:10.288Z,79.20
2018-05-16T19:42:37.738Z,79.10
2018-05-16T19:45:05.209Z,79.30
2018-05-16T19:47:32.773Z,79.40
2018-05-16T19:50:00.219Z,79.20
2018-05-16T19:52:27.730Z,79.20
2018-05-16T19:54:55.213Z,79.20
2018-05-16T19:57:23.459Z,79.30
2018-05-16T19:59:50.913Z,79.20
2018-05-16T20:02:18.398Z,79.40
2018-05-16T20:04:47.356Z,79.50
2018-05-16T20:07:14.794Z,79.50
2018-05-16T20:09:42.402Z,79.50
2018-05-16T20:12:09.864Z,79.70
2018-05-16T20:14:37.359Z,79.70
2018-05-16T20:17:04.766Z,79.60
2018-05-16T20:19:32.237Z,79.60
2018-05-16T20:21:59.688Z,79.60
2018-05-16T20:24:27.159Z,79.80
2018-05-16T20:26:54.607Z,80.60
2018-05-16T20:29:22.166Z,79.90
2018-05-16T20:31:49.566Z,79.80
2018-05-16T20:34:17.052Z,80.00
2018-05-16T20:36:44.594Z,80.30
2018-05-16T20:39:12.057Z,80.20
2018-05-16T20:41:39.534Z,80.20
2018-05-16T20:44:07.097Z,80.30
2018-05-16T20:46:34.554Z,80.00
2018-05-16T20:49:02.004Z,80.10
2018-05-16T20:51:29.468Z,80.10
2018-05-16T20:53:56.931Z,80.10
2018-05-16T20:56:24.401Z,80.00
2018-05-16T20:58:51.873Z,79.90
2018-05-16T21:01:19.338Z,79.90
2018-05-16T21:03:46.790Z,80.30
2018-05-16T21:06:14.232Z,80.20
2018-05-16T21:08:41.718Z,80.20
2018-05-16T21:11:09.197Z,80.20
2018-05-16T21:13:36.646Z,80.40
2018-05-16T21:16:04.118Z,80.30
2018-05-16T21:18:31.570Z,80.30
2018-05-16T21:20:59.033Z,80.40
2018-05-16T21:23:26.498Z,80.60
2018-05-16T21:25:54.064Z,80.50
2018-05-16T21:28:21.526Z,80.60
2018-05-16T21:30:48.970Z,80.60
2018-05-16T21:33:16.424Z,80.50
2018-05-16T21:35:43.892Z,80.50
2018-05-16T21:38:11.366Z,80.30
2018-05-16T21:40:38.844Z,80.40
2018-05-16T21:43:06.306Z,80.30
2018-05-16T21:45:33.786Z,80.80
2018-05-16T21:48:01.347Z,80.90
2018-05-16T21:50:28.814Z,80.90
2018-05-16T21:52:56.287Z,81.00
2018-05-16T21:55:23.742Z,81.00
2018-05-16T21:57:51.182Z,81.40
2018-05-16T22:00:18.652Z,81.40
2018-05-16T22:02:46.126Z,81.30
2018-05-16T22:05:13.584Z,81.50
2018-05-16T22:07:41.025Z,81.60
2018-05-16T22:10:08.490Z,82.40
2018-05-16T22:12:35.937Z,82.00
2018-05-16T22:15:03.417Z,82.10
2018-05-16T22:17:30.883Z,82.50
2018-05-16T22:19:58.461Z,81.80
2018-05-16T22:22:25.901Z,82.00
2018-05-16T22:24:53.350Z,81.90
2018-05-16T22:27:20.853Z,82.20
2018-05-16T22:29:48.314Z,82.40
2018-05-16T22:32:21.366Z,82.00
2018-05-16T22:34:54.573Z,82.40
2018-05-16T22:37:27.761Z,82.60
2018-05-16T22:40:00.829Z,82.50
2018-05-16T22:42:28.581Z,82.80
2018-05-16T22:45:01.776Z,82.80
2018-05-16T22:47:29.237Z,83.10
2018-05-16T22:49:56.686Z,82.80
2018-05-16T22:52:24.243Z,83.00
2018-05-16T22:54:51.713Z,82.90
2018-05-16T22:57:19.268Z,83.10
2018-05-16T22:59:46.708Z,83.20
2018-05-16T23:02:14.202Z,83.20
2018-05-16T23:04:41.753Z,82.70
2018-05-16T23:07:09.230Z,82.40
2018-05-16T23:09:36.689Z,82.40
2018-05-16T23:12:04.158Z,82.00
2018-05-16T23:14:31.620Z,81.90
2018-05-16T23:16:59.078Z,81.80
2018-05-16T23:19:26.535Z,81.70
2018-05-16T23:21:54.002Z,81.80
2018-05-16T23:24:21.465Z,81.90
2018-05-16T23:26:48.926Z,82.00
2018-05-16T23:29:16.364Z,82.00
2018-05-16T23:31:43.830Z,82.40
2018-05-16T23:34:11.293Z,83.30
2018-05-16T23:36:38.760Z,83.10
2018-05-16T23:39:06.256Z,83.40
2018-05-16T23:41:33.722Z,83.70
2018-05-16T23:44:01.186Z,83.70
2018-05-16T23:46:28.633Z,83.40
2018-05-16T23:48:56.110Z,83.70
2018-05-16T23:51:23.569Z,83.60
2018-05-16T23:53:51.131Z,84.00
2018-05-16T23:56:18.564Z,84.60
2018-05-16T23:58:46.026Z,83.50
